Time;durP1;ratioP1;P1;durP2;ratioP2;P2;SDS_P1;SDS_P2;PMS_P1;PMS_P2;Temp;Humidity;BMP_temperature;BMP_pressure;BME280_temperature;BME280_humidity;BME280_pressure;Samples;Min_cycle;Max_cycle;Signal;HPM_P1;HPM_P2
2022/08/30 00:01:10;;;;;;;5.65;3.28;;;;;;;17.16;98.07;98928.88;5031388;28;20154;-68
2022/08/30 00:03:39;;;;;;;8.63;3.33;;;;;;;17.21;97.74;98923.50;5032755;28;20056;-68
2022/08/30 00:06:06;;;;;;;5.97;3.00;;;;;;;17.22;94.78;98920.56;5032027;28;20033;-68
2022/08/30 00:08:32;;;;;;;6.78;3.15;;;;;;;17.26;95.99;98929.09;5022511;28;20034;-68
2022/08/30 00:10:58;;;;;;;6.45;3.10;;;;;;;17.17;96.24;98925.91;5030927;28;20029;-68
2022/08/30 00:13:23;;;;;;;6.65;3.45;;;;;;;17.29;95.04;98929.44;5035009;28;20352;-67
2022/08/30 00:15:49;;;;;;;7.82;3.20;;;;;;;17.05;97.63;98914.19;5036851;28;20053;-67
2022/08/30 00:18:17;;;;;;;6.30;3.45;;;;;;;17.23;97.17;98924.94;5032982;28;20034;-67
2022/08/30 00:20:44;;;;;;;6.13;2.95;;;;;;;17.18;98.06;98921.28;5031020;28;20029;-68
2022/08/30 00:23:09;;;;;;;10.20;3.67;;;;;;;17.20;98.01;98922.69;5027582;28;20029;-68
2022/08/30 00:25:34;;;;;;;5.18;3.13;;;;;;;17.08;98.37;98927.34;5035665;28;20060;-68
2022/08/30 00:28:01;;;;;;;5.38;2.90;;;;;;;16.95;98.20;98919.44;5029736;28;20051;-68
2022/08/30 00:30:27;;;;;;;5.85;3.45;;;;;;;16.97;97.65;98930.97;5034300;28;20021;-68
2022/08/30 00:32:52;;;;;;;6.15;3.63;;;;;;;16.91;100.00;98930.03;5032857;28;20022;-68
2022/08/30 00:35:19;;;;;;;7.50;4.13;;;;;;;16.90;100.00;98912.00;5035354;28;20101;-68
2022/08/30 00:37:45;;;;;;;9.00;4.20;;;;;;;16.76;100.00;98914.09;5031661;28;20173;-68
2022/08/30 00:40:11;;;;;;;10.05;4.10;;;;;;;16.72;100.00;98931.25;5023905;28;20487;-67
2022/08/30 00:42:38;;;;;;;5.93;3.90;;;;;;;16.69;100.00;98927.09;5035635;28;20026;-68
2022/08/30 00:45:21;;;;;;;8.25;4.47;;;;;;;16.58;100.00;98919.72;5023446;28;20026;-68
2022/08/30 00:47:47;;;;;;;10.05;3.70;;;;;;;16.59;100.00;98932.31;5027710;28;20036;-68
2022/08/30 00:50:15;;;;;;;5.78;3.60;;;;;;;16.51;100.00;98929.97;5008566;28;20037;-68
2022/08/30 00:52:45;;;;;;;8.15;3.85;;;;;;;16.48;100.00;98931.28;5032228;28;20013;-68
2022/08/30 00:55:13;;;;;;;8.65;3.67;;;;;;;16.34;100.00;98918.91;5029585;28;20029;-68
2022/08/30 00:57:39;;;;;;;7.38;3.90;;;;;;;16.44;100.00;98932.81;5030006;28;20025;-67
2022/08/30 01:00:06;;;;;;;9.55;3.70;;;;;;;16.39;100.00;98929.97;5022722;28;20037;-68
2022/08/30 01:02:32;;;;;;;4.93;3.33;;;;;;;16.36;100.00;98935.91;5031080;28;20030;-68
2022/08/30 01:05:00;;;;;;;10.45;3.75;;;;;;;16.34;100.00;98916.19;5028466;28;20039;-68
2022/08/30 01:07:25;;;;;;;5.38;3.58;;;;;;;16.28;100.00;98928.88;5028264;28;20033;-68
2022/08/30 01:09:51;;;;;;;8.63;3.75;;;;;;;16.24;100.00;98929.59;5026983;28;20044;-68
2022/08/30 01:12:16;;;;;;;5.82;3.28;;;;;;;16.15;100.00;98935.41;5029577;28;20075;-68
2022/08/30 01:14:41;;;;;;;5.43;3.38;;;;;;;16.10;100.00;98935.28;5022385;28;20448;-68
2022/08/30 01:17:08;;;;;;;4.63;3.30;;;;;;;16.04;100.00;98932.69;5038228;28;20021;-68
2022/08/30 01:19:53;;;;;;;5.75;3.13;;;;;;;16.11;100.00;98930.66;5026335;28;20029;-68
2022/08/30 01:22:50;;;;;;;7.45;3.80;;;;;;;16.05;100.00;98932.44;5020373;28;20098;-68
2022/08/30 01:25:20;;;;;;;6.95;3.50;;;;;;;16.11;100.00;98938.84;5026796;28;20101;-68
2022/08/30 01:27:57;;;;;;;8.65;3.35;;;;;;;16.12;100.00;98945.97;5022858;28;20101;-67
2022/08/30 01:30:23;;;;;;;6.10;3.50;;;;;;;16.06;100.00;98933.25;5008962;28;20044;-68
2022/08/30 01:32:51;;;;;;;6.85;3.45;;;;;;;15.97;100.00;98941.78;5024487;28;21783;-67
2022/08/30 01:35:19;;;;;;;9.02;3.95;;;;;;;15.81;100.00;98919.84;5001779;28;20107;-68
2022/08/30 01:37:45;;;;;;;8.95;3.60;;;;;;;15.84;100.00;98914.72;5026278;28;20483;-67
2022/08/30 01:40:13;;;;;;;10.90;3.25;;;;;;;15.82;100.00;98933.22;5030312;28;20060;-68
2022/08/30 01:42:39;;;;;;;6.45;3.58;;;;;;;15.73;100.00;98937.38;5006910;28;20026;-68
2022/08/30 01:45:05;;;;;;;5.47;3.13;;;;;;;15.65;100.00;98932.22;5031268;28;20442;-68
2022/08/30 01:47:31;;;;;;;7.57;3.58;;;;;;;15.66;100.00;98934.69;5030982;28;20092;-68
2022/08/30 01:49:58;;;;;;;7.00;3.88;;;;;;;15.68;100.00;98945.38;5055327;22;20057;-61
2022/08/30 01:52:24;;;;;;;5.30;3.78;;;;;;;15.61;100.00;98939.19;5027971;28;20082;-61
2022/08/30 01:54:50;;;;;;;6.35;3.33;;;;;;;15.56;100.00;98939.88;5042922;28;20512;-61
2022/08/30 01:57:19;;;;;;;8.13;3.50;;;;;;;15.56;100.00;98927.09;5032738;28;20032;-61
2022/08/30 01:59:46;;;;;;;6.40;3.65;;;;;;;15.58;100.00;98940.50;5028493;28;20032;-61
2022/08/30 02:02:14;;;;;;;7.50;3.63;;;;;;;15.49;100.00;98940.00;5030398;28;20495;-61
2022/08/30 02:04:41;;;;;;;10.05;3.88;;;;;;;15.49;100.00;98944.63;5032663;28;20032;-61
2022/08/30 02:07:06;;;;;;;8.10;4.47;;;;;;;15.43;100.00;98949.13;5037557;28;20115;-61
2022/08/30 02:09:31;;;;;;;6.03;3.75;;;;;;;15.32;100.00;98939.78;5033783;28;20142;-61
2022/08/30 02:11:57;;;;;;;8.13;4.10;;;;;;;15.44;100.00;98945.31;5028822;28;20021;-61
2022/08/30 02:14:22;;;;;;;9.80;4.03;;;;;;;15.47;100.00;98936.66;5032466;28;20021;-61
2022/08/30 02:16:48;;;;;;;6.25;4.05;;;;;;;15.37;100.00;98936.38;5026465;28;20024;-61
2022/08/30 02:19:13;;;;;;;7.57;4.20;;;;;;;15.35;100.00;98933.06;5031522;28;20029;-61
2022/08/30 02:21:38;;;;;;;8.07;3.90;;;;;;;15.24;100.00;98942.03;5027037;28;20028;-61
2022/08/30 02:24:04;;;;;;;6.13;4.03;;;;;;;15.13;100.00;98936.28;5029484;28;20029;-61
2022/08/30 02:26:30;;;;;;;13.35;4.25;;;;;;;15.01;100.00;98932.69;5029927;28;20543;-61
2022/08/30 02:28:56;;;;;;;10.77;4.47;;;;;;;15.06;100.00;98927.38;5046814;28;20071;-61
2022/08/30 02:31:21;;;;;;;12.25;4.90;;;;;;;15.06;100.00;98929.25;5027059;28;20025;-61
2022/08/30 02:33:49;;;;;;;7.20;4.53;;;;;;;15.00;100.00;98930.19;5023865;28;20025;-61
2022/08/30 02:36:14;;;;;;;7.30;4.20;;;;;;;14.99;100.00;98929.34;5045080;28;20017;-61
2022/08/30 02:38:39;;;;;;;10.68;4.35;;;;;;;14.89;100.00;98927.16;5031902;28;20369;-61
2022/08/30 02:41:05;;;;;;;10.48;4.45;;;;;;;14.87;100.00;98918.38;5029541;28;20179;-61
2022/08/30 02:43:31;;;;;;;7.47;4.32;;;;;;;14.90;100.00;98917.09;5027610;28;20083;-61
2022/08/30 02:45:56;;;;;;;9.70;4.38;;;;;;;14.83;100.00;98914.47;5026011;28;20067;-61
2022/08/30 02:48:22;;;;;;;5.78;3.97;;;;;;;14.85;100.00;98916.94;5031492;28;20082;-61
2022/08/30 02:50:51;;;;;;;12.77;4.85;;;;;;;14.81;100.00;98911.13;5027718;28;20028;-61
2022/08/30 02:53:17;;;;;;;9.13;5.00;;;;;;;14.88;100.00;98911.03;5025054;28;20049;-61
2022/08/30 02:55:43;;;;;;;10.63;5.03;;;;;;;14.83;100.00;98919.09;5027553;28;20025;-61
2022/08/30 02:58:09;;;;;;;7.72;4.72;;;;;;;14.75;100.00;98913.91;5034050;28;20032;-61
2022/08/30 03:00:35;;;;;;;8.88;4.15;;;;;;;14.64;100.00;98920.97;5030421;28;20112;-61
2022/08/30 03:03:03;;;;;;;13.15;4.32;;;;;;;14.55;100.00;98925.06;5047059;28;20017;-61
2022/08/30 03:05:29;;;;;;;7.97;4.13;;;;;;;14.45;100.00;98923.66;5031739;28;20382;-61
2022/08/30 03:07:55;;;;;;;7.90;4.35;;;;;;;14.35;100.00;98922.50;5028130;28;20040;-61
2022/08/30 03:10:20;;;;;;;9.63;4.20;;;;;;;14.33;100.00;98924.59;5031340;28;20499;-60
2022/08/30 03:12:46;;;;;;;8.77;4.50;;;;;;;14.24;100.00;98930.34;5029544;28;20021;-61
2022/08/30 03:15:12;;;;;;;9.23;4.68;;;;;;;14.20;100.00;98923.69;5036328;28;21256;-61
2022/08/30 03:17:38;;;;;;;6.80;3.92;;;;;;;14.20;100.00;98931.88;5029603;28;20040;-61
2022/08/30 03:20:05;;;;;;;6.32;4.38;;;;;;;14.19;100.00;98924.75;5045695;28;20117;-61
2022/08/30 03:22:30;;;;;;;7.78;4.22;;;;;;;14.21;100.00;98928.06;5027191;28;20029;-61
2022/08/30 03:24:58;;;;;;;9.13;4.60;;;;;;;14.16;100.00;98925.19;5036328;28;20057;-61
2022/08/30 03:27:24;;;;;;;10.25;4.53;;;;;;;14.08;100.00;98925.47;5037942;28;20115;-61
2022/08/30 03:29:49;;;;;;;7.78;4.55;;;;;;;13.99;100.00;98927.66;5030003;28;20036;-61
2022/08/30 03:32:15;;;;;;;8.10;4.35;;;;;;;13.97;100.00;98926.22;5043552;28;20029;-61
2022/08/30 03:34:41;;;;;;;10.13;4.45;;;;;;;13.99;100.00;98910.47;5035391;28;20131;-60
2022/08/30 03:37:06;;;;;;;9.52;4.60;;;;;;;13.99;100.00;98914.06;5030923;28;20455;-61
2022/08/30 03:39:32;;;;;;;10.55;4.40;;;;;;;13.95;100.00;98904.66;5029730;28;20065;-61
2022/08/30 03:41:57;;;;;;;13.07;5.22;;;;;;;14.00;100.00;98902.09;5031696;28;20040;-61
2022/08/30 03:44:22;;;;;;;8.95;4.90;;;;;;;14.07;100.00;98899.34;5032596;28;20527;-62
2022/08/30 03:46:48;;;;;;;9.73;4.50;;;;;;;14.12;100.00;98906.81;5035526;28;20037;-62
2022/08/30 03:49:14;;;;;;;8.75;4.50;;;;;;;14.07;100.00;98906.66;5036956;28;20029;-61
2022/08/30 03:51:40;;;;;;;8.85;4.82;;;;;;;14.00;100.00;98901.28;5032083;28;20052;-61
2022/08/30 03:54:05;;;;;;;8.25;4.45;;;;;;;13.99;100.00;98903.19;5033520;28;20160;-61
2022/08/30 03:56:31;;;;;;;8.20;4.60;;;;;;;14.03;100.00;98898.09;5033857;28;20040;-63
2022/08/30 03:58:56;;;;;;;12.40;4.95;;;;;;;13.99;100.00;98902.31;5020442;28;20143;-60
2022/08/30 04:01:22;;;;;;;14.65;5.30;;;;;;;14.00;100.00;98898.56;5025277;28;20036;-60
2022/08/30 04:03:48;;;;;;;11.13;4.47;;;;;;;13.98;100.00;98895.22;5032403;28;20024;-60
2022/08/30 04:06:13;;;;;;;9.63;5.70;;;;;;;13.98;100.00;98908.81;5032690;28;20123;-62
2022/08/30 04:08:39;;;;;;;10.13;5.40;;;;;;;14.03;100.00;98898.09;5033517;28;20029;-61
2022/08/30 04:11:05;;;;;;;9.98;5.78;;;;;;;14.00;100.00;98901.28;5033927;28;20036;-61
2022/08/30 04:13:30;;;;;;;7.72;4.53;;;;;;;13.99;100.00;98914.06;5031977;28;20020;-61
2022/08/30 04:15:56;;;;;;;6.05;4.32;;;;;;;13.88;100.00;98908.50;5040980;28;20380;-61
2022/08/30 04:18:21;;;;;;;7.85;4.28;;;;;;;13.87;100.00;98913.09;5028733;28;20119;-60
2022/08/30 04:20:47;;;;;;;9.50;4.25;;;;;;;13.86;100.00;98907.88;5027490;28;20029;-60
2022/08/30 04:23:13;;;;;;;8.80;4.80;;;;;;;13.76;100.00;98920.09;5032727;28;20461;-60
2022/08/30 04:25:40;;;;;;;6.95;4.30;;;;;;;13.73;100.00;98909.66;5031571;28;20041;-60
2022/08/30 04:28:06;;;;;;;10.07;4.32;;;;;;;13.66;100.00;98914.31;5032956;28;20025;-58
2022/08/30 04:30:32;;;;;;;7.82;4.35;;;;;;;13.64;100.00;98918.31;5031794;28;20021;-58
2022/08/30 04:32:57;;;;;;;9.50;4.70;;;;;;;13.64;100.00;98910.97;5032795;28;20035;-58
2022/08/30 04:35:23;;;;;;;10.10;4.60;;;;;;;13.62;100.00;98907.63;5031322;28;20067;-58
2022/08/30 04:37:48;;;;;;;11.48;4.78;;;;;;;13.84;100.00;98907.28;5032166;28;20025;-58
2022/08/30 04:40:14;;;;;;;8.35;4.82;;;;;;;13.81;100.00;98909.38;5028977;28;20032;-58
2022/08/30 04:42:42;;;;;;;12.77;5.00;;;;;;;13.79;100.00;98900.63;5032045;28;20055;-59
2022/08/30 04:45:11;;;;;;;11.45;4.85;;;;;;;13.82;100.00;98919.19;5036191;28;20325;-58
2022/08/30 04:47:38;;;;;;;8.82;4.68;;;;;;;13.80;100.00;98925.91;5032042;28;20361;-64
2022/08/30 04:50:08;;;;;;;7.10;4.38;;;;;;;13.82;100.00;98924.63;5026620;28;20044;-65
2022/08/30 04:52:34;;;;;;;9.40;5.25;;;;;;;13.88;100.00;98924.81;5043972;28;20039;-65
2022/08/30 04:54:59;;;;;;;8.43;5.07;;;;;;;13.97;100.00;98924.31;5033683;28;20029;-66
2022/08/30 04:57:26;;;;;;;6.97;4.80;;;;;;;14.04;100.00;98940.56;5030333;28;20029;-65
2022/08/30 04:59:51;;;;;;;9.20;4.72;;;;;;;14.09;100.00;98938.00;5027562;28;20020;-65
2022/08/30 05:02:17;;;;;;;10.13;4.65;;;;;;;14.13;100.00;98939.25;5032144;28;20029;-65
2022/08/30 05:07:30;;;;;;;12.95;4.90;;;;;;;14.26;100.00;98946.47;5014218;28;20127;-65
2022/08/30 05:09:56;;;;;;;7.88;4.30;;;;;;;14.39;100.00;98948.22;5027768;28;22331;-66
2022/08/30 05:12:22;;;;;;;7.40;4.60;;;;;;;14.48;100.00;98950.41;5027099;28;20059;-66
2022/08/30 05:14:48;;;;;;;9.15;4.80;;;;;;;14.68;100.00;98955.69;5033536;28;20052;-66
2022/08/30 05:17:14;;;;;;;9.98;4.78;;;;;;;14.62;100.00;98937.53;5031930;28;20518;-66
2022/08/30 05:19:39;;;;;;;8.23;5.20;;;;;;;14.83;100.00;98960.78;5029188;28;20028;-66
2022/08/30 05:22:05;;;;;;;9.55;4.95;;;;;;;15.10;100.00;98960.44;5032681;28;20033;-66
2022/08/30 05:24:30;;;;;;;9.20;5.10;;;;;;;15.09;100.00;98959.63;5029898;28;20020;-66
2022/08/30 05:26:57;;;;;;;13.73;5.30;;;;;;;15.15;100.00;98955.16;5030634;28;20056;-66
2022/08/30 05:29:22;;;;;;;12.52;4.93;;;;;;;15.32;100.00;98955.31;5030534;28;20550;-66
2022/08/30 05:31:48;;;;;;;9.27;4.88;;;;;;;15.39;100.00;98960.72;5024748;28;20032;-65
2022/08/30 05:34:13;;;;;;;13.25;5.13;;;;;;;15.50;100.00;98963.47;5031954;28;20043;-63
2022/08/30 05:36:39;;;;;;;12.07;5.65;;;;;;;15.68;100.00;98959.03;5031504;28;20494;-62
2022/08/30 05:39:09;;;;;;;10.35;5.85;;;;;;;15.83;100.00;98964.09;5034675;28;20028;-62
2022/08/30 05:41:35;;;;;;;11.80;6.25;;;;;;;15.87;100.00;98966.09;5053213;28;20021;-62
2022/08/30 05:44:02;;;;;;;10.60;5.93;;;;;;;16.21;100.00;98960.94;5031861;28;20021;-62
2022/08/30 05:46:32;;;;;;;8.20;4.68;;;;;;;17.19;98.62;98963.97;5028669;28;20471;-63
2022/08/30 05:49:00;;;;;;;6.65;3.95;;;;;;;18.79;80.37;98955.50;5040841;28;20123;-62
2022/08/30 05:51:27;;;;;;;10.03;4.10;;;;;;;20.22;69.06;98950.75;5030155;28;20029;-62
2022/08/30 05:53:54;;;;;;;7.57;3.85;;;;;;;21.69;62.41;98943.53;5028042;28;20268;-62
2022/08/30 05:56:23;;;;;;;7.30;3.83;;;;;;;22.58;59.00;98933.91;5022940;28;20039;-63
2022/08/30 05:58:48;;;;;;;7.32;4.03;;;;;;;23.18;56.41;98950.56;5026364;28;20017;-62
2022/08/30 06:01:42;;;;;;;8.65;3.25;;;;;;;23.88;53.35;98941.38;5028546;28;20173;-62
2022/08/30 06:04:09;;;;;;;8.32;4.25;;;;;;;24.58;51.42;98947.44;5025497;28;20032;-62
2022/08/30 06:06:39;;;;;;;6.53;3.60;;;;;;;25.03;51.02;98947.22;5032026;28;20025;-60
2022/08/30 06:09:07;;;;;;;8.45;3.47;;;;;;;25.85;48.80;98944.22;5023756;28;20025;-59
2022/08/30 06:11:33;;;;;;;8.02;3.80;;;;;;;26.20;47.39;98953.94;5027123;28;20021;-62
2022/08/30 06:13:59;;;;;;;4.72;3.35;;;;;;;26.40;46.71;98941.66;5027421;28;20024;-62
2022/08/30 06:16:26;;;;;;;8.43;3.63;;;;;;;26.47;46.32;98955.13;5029905;28;20033;-63
2022/08/30 06:18:53;;;;;;;7.97;3.38;;;;;;;27.07;46.58;98949.59;5036871;28;20036;-60
2022/08/30 06:21:28;;;;;;;11.35;3.33;;;;;;;28.05;43.34;98959.41;5031435;28;20033;-60
2022/08/30 06:23:55;;;;;;;8.00;3.97;;;;;;;27.84;43.53;98961.88;5032661;28;20381;-62
2022/08/30 06:26:21;;;;;;;8.38;3.58;;;;;;;27.83;44.49;98962.19;5032477;28;20029;-62
2022/08/30 06:28:48;;;;;;;7.00;3.78;;;;;;;27.94;44.43;98963.59;5028427;28;20017;-62
2022/08/30 06:31:15;;;;;;;7.38;3.45;;;;;;;27.60;44.61;98972.41;5028767;28;20026;-62
2022/08/30 06:33:41;;;;;;;7.07;3.38;;;;;;;28.11;43.80;98963.75;5028327;28;20024;-63
2022/08/30 06:36:16;;;;;;;9.00;3.85;;;;;;;28.47;42.47;98957.28;5031168;28;20021;-62
2022/08/30 06:38:42;;;;;;;5.90;3.33;;;;;;;29.28;41.17;98953.44;5029516;28;20029;-61
2022/08/30 06:41:10;;;;;;;6.60;3.20;;;;;;;29.68;39.80;98942.19;5030308;28;20031;-62
2022/08/30 06:43:36;;;;;;;5.97;3.17;;;;;;;29.81;40.46;98946.00;5049180;28;20476;-62
2022/08/30 06:46:04;;;;;;;6.18;2.80;;;;;;;30.67;38.31;98939.50;5048492;28;20029;-62
2022/08/30 06:48:29;;;;;;;5.82;3.10;;;;;;;31.88;36.55;98942.81;5042749;28;20033;-62
2022/08/30 06:50:55;;;;;;;5.68;3.15;;;;;;;32.21;35.52;98942.06;5020409;28;20052;-61
2022/08/30 06:53:20;;;;;;;6.00;3.22;;;;;;;33.22;33.81;98944.41;5029259;28;20111;-62
2022/08/30 06:55:57;;;;;;;5.68;2.95;;;;;;;33.17;34.08;98944.66;5050130;28;20033;-61
2022/08/30 06:58:23;;;;;;;4.78;3.28;;;;;;;31.54;36.42;98944.72;5033523;28;20048;-61
2022/08/30 07:00:50;;;;;;;8.55;3.38;;;;;;;29.57;39.48;98952.00;5029477;28;20032;-61
2022/08/30 07:03:26;;;;;;;8.38;3.03;;;;;;;30.51;38.04;98941.19;5033606;28;20028;-61
2022/08/30 07:05:52;;;;;;;7.53;3.10;;;;;;;32.37;35.41;98934.66;5053600;28;20136;-61
2022/08/30 07:08:19;;;;;;;9.60;3.22;;;;;;;33.62;33.24;98940.91;5028965;28;20028;-61
2022/08/30 07:10:45;;;;;;;7.28;3.28;;;;;;;34.93;31.30;98930.16;5028190;28;20409;-61
2022/08/30 07:13:10;;;;;;;6.05;3.20;;;;;;;35.26;30.62;98935.41;5033544;28;20050;-62
2022/08/30 07:15:41;;;;;;;6.82;3.15;;;;;;;34.46;31.20;98931.72;5030611;28;20051;-62
2022/08/30 07:20:52;;;;;;;4.63;2.95;;;;;;;31.88;34.49;98937.22;5048770;28;20051;-62
2022/08/30 07:23:17;;;;;;;7.18;3.40;;;;;;;32.99;32.71;98938.44;5032784;28;20025;-61
2022/08/30 07:25:43;;;;;;;7.60;3.00;;;;;;;33.24;32.61;98936.47;5040056;28;20032;-62
2022/08/30 07:28:08;;;;;;;12.63;2.70;;;;;;;33.60;32.42;98932.03;5028392;28;20028;-62
2022/08/30 07:30:34;;;;;;;8.05;2.80;;;;;;;34.17;31.24;98935.75;5027828;28;20491;-62
2022/08/30 07:33:00;;;;;;;7.15;3.05;;;;;;;34.49;31.87;98939.44;5048198;28;20032;-61
2022/08/30 07:35:25;;;;;;;5.93;2.90;;;;;;;35.42;29.48;98939.00;5032588;28;20545;-62
2022/08/30 07:37:51;;;;;;;5.75;2.95;;;;;;;35.16;29.97;98944.41;5049051;28;20040;-62
2022/08/30 07:40:16;;;;;;;7.18;3.00;;;;;;;34.93;30.00;98938.59;5032261;28;20029;-62
2022/08/30 07:42:42;;;;;;;5.60;2.60;;;;;;;35.97;29.34;98947.50;5032156;28;20072;-68
2022/08/30 07:45:09;;;;;;;5.78;2.60;;;;;;;35.75;29.79;98932.16;5027866;28;20055;-67
2022/08/30 07:47:34;;;;;;;5.45;2.70;;;;;;;34.39;31.50;98935.16;5043847;28;20370;-62
2022/08/30 07:50:00;;;;;;;6.68;2.20;;;;;;;36.11;29.25;98933.75;5043344;28;20040;-62
2022/08/30 07:52:27;;;;;;;5.28;2.65;;;;;;;36.12;28.55;98934.56;5027111;28;20056;-62
2022/08/30 07:54:57;;;;;;;6.43;2.83;;;;;;;36.38;28.50;98943.13;5033988;28;20086;-62
2022/08/30 07:57:23;;;;;;;7.00;2.80;;;;;;;34.13;31.40;98946.84;5033333;28;20664;-62
2022/08/30 07:59:49;;;;;;;6.32;2.70;;;;;;;34.66;30.88;98946.72;5034182;28;20033;-63
2022/08/30 08:02:14;;;;;;;5.20;2.50;;;;;;;35.95;29.36;98947.06;5047776;28;20032;-68
2022/08/30 08:04:40;;;;;;;7.78;2.80;;;;;;;36.54;29.05;98950.69;5036347;28;20389;-68
2022/08/30 08:07:05;;;;;;;7.40;2.78;;;;;;;36.79;28.26;98945.53;5033655;28;20045;-62
2022/08/30 08:09:32;;;;;;;5.70;2.65;;;;;;;36.72;27.91;98949.03;5043627;28;20215;-63
2022/08/30 08:11:58;;;;;;;8.48;2.30;;;;;;;36.78;27.73;98949.53;5034754;28;20029;-63
2022/08/30 08:14:23;;;;;;;12.35;2.78;;;;;;;36.08;28.73;98947.75;5031174;28;20013;-63
2022/08/30 08:16:49;;;;;;;10.32;3.03;;;;;;;35.83;29.26;98950.81;5037359;28;20488;-63
2022/08/30 08:19:14;;;;;;;8.35;2.70;;;;;;;36.28;29.25;98946.56;5040290;28;20044;-68
2022/08/30 08:21:40;;;;;;;3.58;2.33;;;;;;;36.44;28.65;98940.81;5034907;28;20349;-68
2022/08/30 08:24:06;;;;;;;6.60;2.63;;;;;;;37.22;28.02;98943.47;5033443;28;20136;-68
2022/08/30 08:26:36;;;;;;;5.60;2.60;;;;;;;37.52;27.21;98937.09;5038916;28;20025;-68
2022/08/30 08:31:40;;;;;;;5.75;2.05;;;;;;;38.51;25.83;98925.47;5019335;28;20045;-61
2022/08/30 08:34:06;;;;;;;7.43;2.58;;;;;;;39.76;24.67;98942.69;5036250;28;20044;-61
2022/08/30 08:36:33;;;;;;;3.92;2.40;;;;;;;39.07;24.92;98938.56;5042717;28;20455;-61
2022/08/30 08:38:59;;;;;;;5.95;2.30;;;;;;;40.15;24.54;98939.25;5029087;28;20076;-61
2022/08/30 08:41:35;;;;;;;4.10;2.42;;;;;;;39.45;24.85;98940.06;5035747;28;20045;-61
2022/08/30 08:44:18;;;;;;;5.00;2.25;;;;;;;39.26;24.81;98931.81;5032039;28;20476;-61
2022/08/30 08:47:11;;;;;;;4.90;2.50;;;;;;;37.91;25.84;98926.31;5030287;28;20548;-61
2022/08/30 08:49:39;;;;;;;4.82;2.45;;;;;;;39.04;25.27;98924.34;5035896;28;20036;-61
2022/08/30 08:55:00;;;;;;;7.53;2.50;;;;;;;40.76;23.54;98920.41;5002716;28;20083;-61
2022/08/30 08:57:32;;;;;;;4.97;2.80;;;;;;;39.65;24.14;98915.09;5028351;28;20026;-61
2022/08/30 08:59:58;;;;;;;5.70;2.72;;;;;;;38.42;25.50;98922.94;5024393;28;20021;-60
2022/08/30 09:02:43;;;;;;;6.72;2.60;;;;;;;37.98;26.36;98915.16;5037167;28;20362;-60
2022/08/30 09:05:12;;;;;;;3.88;2.28;;;;;;;39.31;24.85;98911.63;5033790;28;20040;-61
2022/08/30 09:07:42;;;;;;;4.70;2.70;;;;;;;38.26;25.49;98905.41;5028790;28;20056;-61
2022/08/30 09:10:08;;;;;;;4.05;2.63;;;;;;;36.94;27.22;98907.91;5032182;28;20103;-60
2022/08/30 09:12:35;;;;;;;3.58;2.45;;;;;;;37.59;26.66;98909.78;5025356;28;20021;-61
2022/08/30 09:15:23;;;;;;;4.57;2.47;;;;;;;38.95;25.35;98894.38;5036229;28;20112;-61
2022/08/30 09:17:58;;;;;;;4.40;2.75;;;;;;;40.21;23.89;98901.63;5036320;28;20021;-61
2022/08/30 09:20:40;;;;;;;4.88;2.30;;;;;;;39.97;23.93;98893.84;5025473;28;20029;-61
2022/08/30 09:23:14;;;;;;;3.38;2.72;;;;;;;39.03;24.73;98894.44;5036774;28;20021;-61
2022/08/30 09:25:53;;;;;;;3.97;2.47;;;;;;;39.48;24.36;98895.19;5032424;28;20063;-61
2022/08/30 09:28:50;;;;;;;8.30;2.60;;;;;;;37.86;26.04;98893.59;5022928;28;20033;-61
2022/08/30 09:31:25;;;;;;;2.97;2.45;;;;;;;38.33;25.35;98892.16;5013435;28;20033;-61
2022/08/30 09:34:43;;;;;;;4.03;2.85;;;;;;;38.99;25.13;98892.41;5042077;28;20024;-61
2022/08/30 09:37:30;;;;;;;4.93;2.38;;;;;;;39.39;25.05;98887.06;5020532;28;20496;-61
2022/08/30 09:39:57;;;;;;;7.40;2.63;;;;;;;40.29;24.12;98880.59;5023896;28;20021;-61
2022/08/30 09:42:25;;;;;;;4.00;2.58;;;;;;;40.14;23.96;98884.59;5031568;28;20402;-61
2022/08/30 09:45:08;;;;;;;3.67;2.60;;;;;;;39.80;24.23;98879.22;5032944;28;20048;-61
2022/08/30 09:47:40;;;;;;;4.18;2.58;;;;;;;39.35;24.71;98875.69;5030968;28;20041;-61
2022/08/30 09:50:18;;;;;;;4.93;2.88;;;;;;;39.60;24.59;98872.19;5027113;28;20045;-61
2022/08/30 09:53:08;;;;;;;4.75;2.67;;;;;;;38.89;25.27;98859.19;5041907;28;20032;-60
2022/08/30 09:55:54;;;;;;;5.22;2.78;;;;;;;38.74;25.19;98866.72;5027147;28;20394;-60
2022/08/30 09:58:42;;;;;;;3.90;2.70;;;;;;;36.48;28.02;98864.81;5030090;28;20033;-60
2022/08/30 10:01:13;;;;;;;4.13;2.50;;;;;;;37.18;27.31;98860.75;5047526;28;20875;-61
2022/08/30 10:03:54;;;;;;;4.35;2.70;;;;;;;36.98;27.59;98862.88;5038577;28;20166;-63
2022/08/30 10:06:38;;;;;;;3.72;2.40;;;;;;;37.82;26.82;98856.03;5032643;28;20080;-63
2022/08/30 10:09:16;;;;;;;4.85;2.92;;;;;;;37.66;27.00;98844.94;5027729;28;20113;-63
2022/08/30 10:11:47;;;;;;;6.03;2.42;;;;;;;38.72;26.04;98857.00;5043220;28;20094;-63
2022/08/30 10:14:32;;;;;;;6.63;4.28;;;;;;;37.43;27.22;98859.13;5034452;28;20067;-63
2022/08/30 10:17:06;;;;;;;4.40;3.20;;;;;;;35.95;28.28;98860.59;5027906;28;20060;-64
2022/08/30 10:19:41;;;;;;;5.45;3.03;;;;;;;34.12;31.21;98844.13;5024247;28;20029;-63
2022/08/30 10:22:23;;;;;;;6.18;2.88;;;;;;;33.49;31.82;98850.31;5036580;28;20392;-63
2022/08/30 10:25:14;;;;;;;5.15;2.85;;;;;;;34.97;30.26;98841.09;5037957;28;20060;-63
2022/08/30 10:28:18;;;;;;;6.40;3.00;;;;;;;36.58;28.22;98839.66;5027468;28;20025;-63
2022/08/30 10:30:55;;;;;;;3.92;2.80;;;;;;;38.27;26.94;98842.81;4966933;28;20035;-63
2022/08/30 10:33:31;;;;;;;3.75;2.47;;;;;;;38.48;26.01;98836.59;5021302;28;20029;-66
2022/08/30 10:36:01;;;;;;;8.13;2.70;;;;;;;38.89;25.03;98825.25;5041948;28;20105;-67
2022/08/30 10:38:32;;;;;;;5.30;2.65;;;;;;;38.26;26.00;98829.09;5038289;28;20088;-67
2022/08/30 10:41:20;;;;;;;3.92;2.50;;;;;;;38.64;26.35;98829.84;5025777;28;20103;-66
2022/08/30 10:44:14;;;;;;;3.50;2.42;;;;;;;37.63;26.93;98827.97;5023462;28;20381;-66
2022/08/30 10:47:00;;;;;;;5.32;2.70;;;;;;;36.39;28.30;98826.44;5027335;28;20090;-67
2022/08/30 10:49:33;;;;;;;3.55;2.70;;;;;;;34.79;30.45;98823.78;5030657;28;20029;-60
2022/08/30 10:52:11;;;;;;;3.63;2.60;;;;;;;34.30;31.47;98821.31;5016712;28;20029;-59
2022/08/30 10:54:47;;;;;;;4.78;2.95;;;;;;;33.24;32.84;98829.91;5029556;28;20539;-59
2022/08/30 10:57:13;;;;;;;4.32;2.75;;;;;;;32.96;32.98;98819.44;5029371;28;20453;-59
2022/08/30 10:59:57;;;;;;;4.55;2.63;;;;;;;33.01;32.43;98821.19;5033142;28;20029;-59
2022/08/30 11:02:52;;;;;;;3.30;2.60;;;;;;;32.53;33.62;98817.22;5026132;28;20034;-59
2022/08/30 11:06:00;;;;;;;3.58;2.80;;;;;;;32.43;33.71;98821.25;5016680;28;20037;-59
2022/08/30 11:08:44;;;;;;;3.80;3.00;;;;;;;32.64;32.99;98831.56;4936991;28;20023;-59
2022/08/30 11:11:33;;;;;;;4.78;2.50;;;;;;;34.51;31.17;98824.69;5040166;28;20057;-59
2022/08/30 11:14:05;;;;;;;5.03;2.78;;;;;;;34.67;30.63;98817.09;5027433;28;20025;-59
2022/08/30 11:16:52;;;;;;;4.88;2.85;;;;;;;36.77;28.11;98819.03;5033934;28;20075;-59
2022/08/30 11:19:20;;;;;;;8.70;2.67;;;;;;;39.03;25.08;98810.38;5022546;28;20035;-59
2022/08/30 11:21:47;;;;;;;5.60;3.10;;;;;;;39.28;24.86;98819.03;5029326;28;20063;-59
2022/08/30 11:24:18;;;;;;;2.75;2.30;;;;;;;39.20;25.38;98808.88;5028432;28;20105;-59
2022/08/30 11:26:43;;;;;;;3.42;2.45;;;;;;;38.21;26.29;98820.97;5022362;28;20036;-59
2022/08/30 11:29:37;;;;;;;5.17;2.30;;;;;;;38.52;25.86;98814.84;5023195;28;20026;-59
2022/08/30 11:32:11;;;;;;;3.67;2.35;;;;;;;38.83;25.43;98811.81;5024465;28;20386;-59
2022/08/30 11:34:45;;;;;;;2.90;2.60;;;;;;;38.96;24.84;98810.31;5042100;28;20021;-59
2022/08/30 11:37:50;;;;;;;3.20;2.67;;;;;;;38.24;26.06;98812.50;5025163;28;20036;-59
2022/08/30 11:40:18;;;;;;;4.45;2.75;;;;;;;39.08;25.20;98809.19;4988798;28;20021;-59
2022/08/30 11:42:44;;;;;;;;;;;;;;;38.53;25.71;98819.28;4960435;28;20018;-60
2022/08/30 11:45:22;;;;;;;3.67;2.33;;;;;;;37.99;25.65;98814.25;4996075;28;19924;-59
2022/08/30 11:48:27;;;;;;;3.25;2.47;;;;;;;37.00;27.05;98816.16;5025841;28;20059;-66
2022/08/30 11:51:05;;;;;;;3.25;2.70;;;;;;;35.25;28.96;98812.84;5024039;28;21562;-66
2022/08/30 11:53:49;;;;;;;4.07;2.65;;;;;;;35.68;28.67;98816.59;5026468;28;20605;-67